Trevor, WI (53179)

1:21 PM CDT on July 29, 2015 (GMT -0500)
Center Lake | | Change Station
CLOSE
Current Station
Personal Weather Station
Location: Salem, WI
Elevation: 800 ft
Nearby Weather Stations

Elev 800 ft 42.53 °N, 88.12 °W | Updated 55 seconds ago

Partly Cloudy
Partly Cloudy
83.2 °F
Feels Like 84 °F
N
5.0
Wind Variable Wind from WSW
Gusts 11.0 mph

Today
High -- | Low -- °F
--% Chance of Precip.
Yesterday
High -- | Low -- °F
Precip. -- in
5:41 AM 8:16 PM
Waxing Gibbous, 96% visible
Pressure 29.98 in
Visibility 10.0 miles
Clouds Clear
Heat Index 84 °F
Dew Point 63 °F
Humidity 50%
Rainfall -999.00 in
Snow Depth Not available.
UV 11 out of 12
Pollen .50 out of 12
Air Quality Not available.
Flu Activity Not available.
METAR KENW 291753Z 28016G20KT 10SM CLR 28/15 A2999 RMK AO2 SLP150 T02780150 10278 20244 51007

More Conditions Fewer Conditions

Pressure 29.98 in
Visibility 10.0 miles
Clouds Clear
Heat Index 84 °F
Dew Point 63 °F
Humidity 50%
Rainfall -999.00 in
Snow Depth Not available.
UV 11 out of 12
Pollen .50 out of 12
Air Quality Not available.
Flu Activity Not available.
METAR KENW 291753Z 28016G20KT 10SM CLR 28/15 A2999 RMK AO2 SLP150 T02780150 10278 20244 51007

More Conditions Fewer Conditions

10-Day Weather Forecast

×

Almanac

Astronomy

Jul. 29, 2015 Rise Set
Actual Time
Civil Twilight
Nautical Twilight
Astronomical Twilight
Moon
Length of Visible Light
Length of Day
Tomorrow will be .
, % of the Moon is Illuminated

Today's Extremes

State Highs State Lows

Community

WunderPhotos

Upload Photos

1,842,143 photos uploaded!

WunderBlogs® & News

Nearby

Air Quality

  Air Quality AQ Index Pollutant
Not available.

Snow Depth

Station Depth Elevation

Earthquake Activity

City Distance Mag. Time & Date
Minimum magnitude displayed is 2.5.

Coastal Water Temperatures

Place Temperature

Stations

Nearby Weather Stations

Station Location Temp. Windchill Dew Point Humidity Wind Precip. Elev Updated Type